sensor_id;sensor_type;location;lat;lon;timestamp;P1;durP1;ratioP1;P2;durP2;ratioP2
67092;SDS011;54011;50.772;7.730;2022-10-28T00:00:03;16.13;;;4.43;;
67092;SDS011;54011;50.772;7.730;2022-10-28T00:02:29;21.38;;;4.63;;
67092;SDS011;54011;50.772;7.730;2022-10-28T00:04:55;16.92;;;5.43;;
67092;SDS011;54011;50.772;7.730;2022-10-28T00:07:20;14.95;;;4.88;;
67092;SDS011;54011;50.772;7.730;2022-10-28T00:09:46;12.20;;;4.68;;
67092;SDS011;54011;50.772;7.730;2022-10-28T00:12:11;18.48;;;4.63;;
67092;SDS011;54011;50.772;7.730;2022-10-28T00:14:36;25.67;;;5.05;;
67092;SDS011;54011;50.772;7.730;2022-10-28T00:17:02;11.05;;;4.13;;
67092;SDS011;54011;50.772;7.730;2022-10-28T00:19:27;13.18;;;4.53;;
67092;SDS011;54011;50.772;7.730;2022-10-28T00:21:53;14.60;;;4.53;;
67092;SDS011;54011;50.772;7.730;2022-10-28T00:24:19;18.30;;;4.93;;
67092;SDS011;54011;50.772;7.730;2022-10-28T00:26:44;13.23;;;4.40;;
67092;SDS011;54011;50.772;7.730;2022-10-28T00:29:14;24.80;;;5.57;;
67092;SDS011;54011;50.772;7.730;2022-10-28T00:31:41;21.42;;;4.43;;
67092;SDS011;54011;50.772;7.730;2022-10-28T00:34:11;15.88;;;4.78;;
67092;SDS011;54011;50.772;7.730;2022-10-28T00:36:39;20.60;;;5.30;;
67092;SDS011;54011;50.772;7.730;2022-10-28T00:39:09;19.35;;;4.50;;
67092;SDS011;54011;50.772;7.730;2022-10-28T00:41:37;14.77;;;3.90;;
67092;SDS011;54011;50.772;7.730;2022-10-28T00:50:44;15.00;;;4.45;;
67092;SDS011;54011;50.772;7.730;2022-10-28T00:53:16;10.65;;;4.68;;
67092;SDS011;54011;50.772;7.730;2022-10-28T00:55:45;12.85;;;4.50;;
67092;SDS011;54011;50.772;7.730;2022-10-28T00:58:12;16.73;;;5.10;;
67092;SDS011;54011;50.772;7.730;2022-10-28T01:00:39;16.15;;;4.72;;
67092;SDS011;54011;50.772;7.730;2022-10-28T01:03:05;16.75;;;5.00;;
67092;SDS011;54011;50.772;7.730;2022-10-28T01:05:33;21.02;;;4.93;;
67092;SDS011;54011;50.772;7.730;2022-10-28T01:08:01;17.83;;;4.40;;
67092;SDS011;54011;50.772;7.730;2022-10-28T01:21:21;16.35;;;4.43;;
67092;SDS011;54011;50.772;7.730;2022-10-28T01:26:55;14.90;;;4.72;;
67092;SDS011;54011;50.772;7.730;2022-10-28T01:35:10;10.75;;;3.92;;
67092;SDS011;54011;50.772;7.730;2022-10-28T01:37:46;14.35;;;5.22;;
67092;SDS011;54011;50.772;7.730;2022-10-28T01:43:44;22.02;;;4.63;;
67092;SDS011;54011;50.772;7.730;2022-10-28T01:46:16;18.05;;;4.40;;
67092;SDS011;54011;50.772;7.730;2022-10-28T01:48:55;14.68;;;5.03;;
67092;SDS011;54011;50.772;7.730;2022-10-28T01:52:06;13.90;;;4.75;;
67092;SDS011;54011;50.772;7.730;2022-10-28T01:54:16;10.02;;;4.20;;
67092;SDS011;54011;50.772;7.730;2022-10-28T01:56:43;11.70;;;4.18;;
67092;SDS011;54011;50.772;7.730;2022-10-28T01:59:13;17.45;;;4.35;;
67092;SDS011;54011;50.772;7.730;2022-10-28T02:01:41;16.77;;;4.32;;
67092;SDS011;54011;50.772;7.730;2022-10-28T02:04:07;12.43;;;4.05;;
67092;SDS011;54011;50.772;7.730;2022-10-28T02:06:32;12.50;;;4.18;;
67092;SDS011;54011;50.772;7.730;2022-10-28T02:14:10;21.35;;;4.25;;
67092;SDS011;54011;50.772;7.730;2022-10-28T02:17:05;15.50;;;4.32;;
67092;SDS011;54011;50.772;7.730;2022-10-28T02:22:39;12.27;;;4.20;;
67092;SDS011;54011;50.772;7.730;2022-10-28T02:25:20;20.58;;;5.47;;
67092;SDS011;54011;50.772;7.730;2022-10-28T02:27:55;13.10;;;4.63;;
67092;SDS011;54011;50.772;7.730;2022-10-28T02:33:11;16.30;;;4.45;;
67092;SDS011;54011;50.772;7.730;2022-10-28T02:35:43;12.07;;;4.53;;
67092;SDS011;54011;50.772;7.730;2022-10-28T02:38:15;14.48;;;4.82;;
67092;SDS011;54011;50.772;7.730;2022-10-28T02:40:46;16.30;;;5.40;;
67092;SDS011;54011;50.772;7.730;2022-10-28T02:43:16;13.88;;;4.03;;
67092;SDS011;54011;50.772;7.730;2022-10-28T02:45:45;13.20;;;4.47;;
67092;SDS011;54011;50.772;7.730;2022-10-28T02:48:17;15.77;;;4.43;;
67092;SDS011;54011;50.772;7.730;2022-10-28T02:50:47;17.10;;;5.43;;
67092;SDS011;54011;50.772;7.730;2022-10-28T02:53:22;20.83;;;4.90;;
67092;SDS011;54011;50.772;7.730;2022-10-28T02:55:53;18.45;;;4.47;;
67092;SDS011;54011;50.772;7.730;2022-10-28T02:58:21;15.75;;;4.75;;
67092;SDS011;54011;50.772;7.730;2022-10-28T03:00:46;15.27;;;4.25;;
67092;SDS011;54011;50.772;7.730;2022-10-28T03:03:13;11.68;;;3.60;;
67092;SDS011;54011;50.772;7.730;2022-10-28T03:05:39;18.27;;;4.20;;
67092;SDS011;54011;50.772;7.730;2022-10-28T03:08:04;10.65;;;3.60;;
67092;SDS011;54011;50.772;7.730;2022-10-28T03:10:30;14.75;;;5.20;;
67092;SDS011;54011;50.772;7.730;2022-10-28T03:12:55;9.25;;;3.88;;
67092;SDS011;54011;50.772;7.730;2022-10-28T03:15:20;16.25;;;4.40;;
67092;SDS011;54011;50.772;7.730;2022-10-28T03:17:46;19.75;;;4.72;;
67092;SDS011;54011;50.772;7.730;2022-10-28T03:20:11;15.15;;;4.65;;
67092;SDS011;54011;50.772;7.730;2022-10-28T03:22:37;14.95;;;5.05;;
67092;SDS011;54011;50.772;7.730;2022-10-28T03:25:02;13.60;;;5.22;;
67092;SDS011;54011;50.772;7.730;2022-10-28T03:27:28;22.50;;;4.95;;
67092;SDS011;54011;50.772;7.730;2022-10-28T03:29:53;13.82;;;4.72;;
67092;SDS011;54011;50.772;7.730;2022-10-28T03:32:18;18.08;;;4.90;;
67092;SDS011;54011;50.772;7.730;2022-10-28T03:34:44;19.20;;;11.10;;
67092;SDS011;54011;50.772;7.730;2022-10-28T03:37:11;19.45;;;11.77;;
67092;SDS011;54011;50.772;7.730;2022-10-28T03:39:37;18.20;;;8.70;;
67092;SDS011;54011;50.772;7.730;2022-10-28T03:42:02;15.68;;;5.25;;
67092;SDS011;54011;50.772;7.730;2022-10-28T03:44:27;10.05;;;4.28;;
67092;SDS011;54011;50.772;7.730;2022-10-28T03:46:53;19.55;;;5.43;;
67092;SDS011;54011;50.772;7.730;2022-10-28T03:49:18;19.92;;;5.20;;
67092;SDS011;54011;50.772;7.730;2022-10-28T03:51:44;16.00;;;5.20;;
67092;SDS011;54011;50.772;7.730;2022-10-28T03:54:09;17.38;;;5.38;;
67092;SDS011;54011;50.772;7.730;2022-10-28T03:56:34;20.60;;;5.70;;
67092;SDS011;54011;50.772;7.730;2022-10-28T03:59:00;16.67;;;5.15;;
67092;SDS011;54011;50.772;7.730;2022-10-28T04:01:25;13.88;;;4.93;;
67092;SDS011;54011;50.772;7.730;2022-10-28T04:03:50;17.27;;;4.88;;
67092;SDS011;54011;50.772;7.730;2022-10-28T04:06:16;19.17;;;4.70;;
67092;SDS011;54011;50.772;7.730;2022-10-28T04:08:41;19.02;;;5.13;;
67092;SDS011;54011;50.772;7.730;2022-10-28T04:11:07;19.50;;;4.70;;
67092;SDS011;54011;50.772;7.730;2022-10-28T04:13:33;11.63;;;4.80;;
67092;SDS011;54011;50.772;7.730;2022-10-28T04:15:58;11.25;;;4.55;;
67092;SDS011;54011;50.772;7.730;2022-10-28T04:18:26;15.40;;;4.57;;
67092;SDS011;54011;50.772;7.730;2022-10-28T04:20:51;16.10;;;4.85;;
67092;SDS011;54011;50.772;7.730;2022-10-28T04:23:17;13.30;;;4.43;;
67092;SDS011;54011;50.772;7.730;2022-10-28T04:25:44;23.70;;;4.30;;
67092;SDS011;54011;50.772;7.730;2022-10-28T04:28:09;12.65;;;4.15;;
67092;SDS011;54011;50.772;7.730;2022-10-28T04:30:35;17.73;;;4.25;;
67092;SDS011;54011;50.772;7.730;2022-10-28T04:33:00;11.52;;;4.25;;
67092;SDS011;54011;50.772;7.730;2022-10-28T04:35:26;18.75;;;4.28;;
67092;SDS011;54011;50.772;7.730;2022-10-28T04:37:51;15.73;;;4.32;;
67092;SDS011;54011;50.772;7.730;2022-10-28T04:40:16;20.27;;;4.75;;
67092;SDS011;54011;50.772;7.730;2022-10-28T04:42:42;24.23;;;11.27;;
67092;SDS011;54011;50.772;7.730;2022-10-28T04:45:07;13.75;;;6.50;;
67092;SDS011;54011;50.772;7.730;2022-10-28T04:47:33;13.93;;;5.93;;
67092;SDS011;54011;50.772;7.730;2022-10-28T04:49:58;21.05;;;7.10;;
67092;SDS011;54011;50.772;7.730;2022-10-28T04:52:24;16.92;;;6.80;;
67092;SDS011;54011;50.772;7.730;2022-10-28T04:54:49;24.05;;;6.88;;
67092;SDS011;54011;50.772;7.730;2022-10-28T04:57:15;15.65;;;6.57;;
67092;SDS011;54011;50.772;7.730;2022-10-28T04:59:40;22.30;;;6.65;;
67092;SDS011;54011;50.772;7.730;2022-10-28T05:02:05;13.77;;;5.72;;
67092;SDS011;54011;50.772;7.730;2022-10-28T05:04:31;14.95;;;5.57;;
67092;SDS011;54011;50.772;7.730;2022-10-28T05:06:57;12.80;;;5.13;;
67092;SDS011;54011;50.772;7.730;2022-10-28T05:09:22;14.65;;;5.30;;
67092;SDS011;54011;50.772;7.730;2022-10-28T05:11:47;16.15;;;4.70;;
67092;SDS011;54011;50.772;7.730;2022-10-28T05:14:13;14.95;;;4.75;;
67092;SDS011;54011;50.772;7.730;2022-10-28T05:16:38;14.70;;;5.18;;
67092;SDS011;54011;50.772;7.730;2022-10-28T05:19:04;12.85;;;5.18;;
67092;SDS011;54011;50.772;7.730;2022-10-28T05:21:29;15.25;;;4.97;;
67092;SDS011;54011;50.772;7.730;2022-10-28T05:23:55;18.17;;;4.75;;
67092;SDS011;54011;50.772;7.730;2022-10-28T05:26:21;15.85;;;4.90;;
67092;SDS011;54011;50.772;7.730;2022-10-28T05:28:48;14.25;;;4.60;;
67092;SDS011;54011;50.772;7.730;2022-10-28T05:31:14;12.05;;;4.47;;
67092;SDS011;54011;50.772;7.730;2022-10-28T05:33:41;12.70;;;4.18;;
67092;SDS011;54011;50.772;7.730;2022-10-28T05:36:06;14.55;;;4.53;;
67092;SDS011;54011;50.772;7.730;2022-10-28T05:38:33;14.30;;;4.70;;
67092;SDS011;54011;50.772;7.730;2022-10-28T05:40:58;15.32;;;4.80;;
67092;SDS011;54011;50.772;7.730;2022-10-28T05:43:24;18.63;;;4.90;;
67092;SDS011;54011;50.772;7.730;2022-10-28T05:45:52;26.88;;;5.10;;
67092;SDS011;54011;50.772;7.730;2022-10-28T05:48:19;15.45;;;4.15;;
67092;SDS011;54011;50.772;7.730;2022-10-28T05:50:44;18.02;;;4.70;;
67092;SDS011;54011;50.772;7.730;2022-10-28T05:53:09;18.23;;;4.85;;
67092;SDS011;54011;50.772;7.730;2022-10-28T05:55:35;15.27;;;5.47;;
67092;SDS011;54011;50.772;7.730;2022-10-28T05:58:00;9.63;;;4.13;;
67092;SDS011;54011;50.772;7.730;2022-10-28T06:00:27;14.93;;;4.40;;
67092;SDS011;54011;50.772;7.730;2022-10-28T06:03:00;14.52;;;4.80;;
67092;SDS011;54011;50.772;7.730;2022-10-28T06:05:33;19.90;;;5.43;;
67092;SDS011;54011;50.772;7.730;2022-10-28T06:07:59;17.80;;;5.00;;
67092;SDS011;54011;50.772;7.730;2022-10-28T06:10:24;12.80;;;4.50;;
67092;SDS011;54011;50.772;7.730;2022-10-28T06:12:50;19.88;;;4.10;;
67092;SDS011;54011;50.772;7.730;2022-10-28T06:15:18;20.85;;;4.47;;
67092;SDS011;54011;50.772;7.730;2022-10-28T06:17:46;14.60;;;4.32;;
67092;SDS011;54011;50.772;7.730;2022-10-28T06:20:12;23.65;;;4.38;;
67092;SDS011;54011;50.772;7.730;2022-10-28T06:22:44;14.48;;;4.18;;
67092;SDS011;54011;50.772;7.730;2022-10-28T06:25:11;18.73;;;4.50;;
67092;SDS011;54011;50.772;7.730;2022-10-28T06:27:37;11.90;;;4.13;;
67092;SDS011;54011;50.772;7.730;2022-10-28T06:30:02;12.88;;;4.75;;
67092;SDS011;54011;50.772;7.730;2022-10-28T06:32:28;15.52;;;4.40;;
67092;SDS011;54011;50.772;7.730;2022-10-28T06:34:53;11.43;;;4.10;;
67092;SDS011;54011;50.772;7.730;2022-10-28T06:37:19;15.55;;;4.38;;
67092;SDS011;54011;50.772;7.730;2022-10-28T06:39:44;19.05;;;4.53;;
67092;SDS011;54011;50.772;7.730;2022-10-28T06:42:10;13.32;;;4.07;;
67092;SDS011;54011;50.772;7.730;2022-10-28T06:44:35;13.27;;;3.72;;
67092;SDS011;54011;50.772;7.730;2022-10-28T06:47:00;16.25;;;4.07;;
67092;SDS011;54011;50.772;7.730;2022-10-28T06:49:26;15.23;;;4.10;;
67092;SDS011;54011;50.772;7.730;2022-10-28T06:51:52;20.70;;;4.65;;
67092;SDS011;54011;50.772;7.730;2022-10-28T06:54:18;11.05;;;3.83;;
67092;SDS011;54011;50.772;7.730;2022-10-28T06:56:45;17.58;;;3.97;;
67092;SDS011;54011;50.772;7.730;2022-10-28T06:59:11;14.63;;;4.40;;
67092;SDS011;54011;50.772;7.730;2022-10-28T07:01:36;20.50;;;4.20;;
67092;SDS011;54011;50.772;7.730;2022-10-28T07:04:02;14.75;;;3.95;;
67092;SDS011;54011;50.772;7.730;2022-10-28T07:06:27;17.02;;;3.35;;
67092;SDS011;54011;50.772;7.730;2022-10-28T07:08:53;14.07;;;3.90;;
67092;SDS011;54011;50.772;7.730;2022-10-28T07:11:18;8.48;;;3.47;;
67092;SDS011;54011;50.772;7.730;2022-10-28T07:13:44;11.52;;;3.53;;
67092;SDS011;54011;50.772;7.730;2022-10-28T07:16:09;20.00;;;4.15;;
67092;SDS011;54011;50.772;7.730;2022-10-28T07:18:34;16.05;;;3.92;;
67092;SDS011;54011;50.772;7.730;2022-10-28T07:21:00;14.40;;;3.40;;
67092;SDS011;54011;50.772;7.730;2022-10-28T07:23:26;15.40;;;3.70;;
67092;SDS011;54011;50.772;7.730;2022-10-28T07:25:53;13.80;;;3.67;;
67092;SDS011;54011;50.772;7.730;2022-10-28T07:28:20;17.30;;;4.10;;
67092;SDS011;54011;50.772;7.730;2022-10-28T07:30:46;16.00;;;3.88;;
67092;SDS011;54011;50.772;7.730;2022-10-28T07:33:12;14.80;;;3.63;;
67092;SDS011;54011;50.772;7.730;2022-10-28T07:35:38;15.95;;;3.75;;
67092;SDS011;54011;50.772;7.730;2022-10-28T07:38:03;25.05;;;3.65;;
67092;SDS011;54011;50.772;7.730;2022-10-28T07:40:29;18.95;;;3.90;;
67092;SDS011;54011;50.772;7.730;2022-10-28T07:42:54;12.60;;;3.00;;
67092;SDS011;54011;50.772;7.730;2022-10-28T07:45:19;18.50;;;4.38;;
67092;SDS011;54011;50.772;7.730;2022-10-28T07:47:45;14.27;;;3.63;;
67092;SDS011;54011;50.772;7.730;2022-10-28T07:50:13;15.13;;;3.80;;
67092;SDS011;54011;50.772;7.730;2022-10-28T07:52:39;10.48;;;3.10;;
67092;SDS011;54011;50.772;7.730;2022-10-28T07:55:05;17.65;;;3.95;;
67092;SDS011;54011;50.772;7.730;2022-10-28T07:57:32;11.15;;;3.80;;
67092;SDS011;54011;50.772;7.730;2022-10-28T07:59:58;15.20;;;4.03;;
67092;SDS011;54011;50.772;7.730;2022-10-28T08:02:24;12.57;;;3.17;;
67092;SDS011;54011;50.772;7.730;2022-10-28T08:04:50;18.55;;;3.65;;
67092;SDS011;54011;50.772;7.730;2022-10-28T08:07:16;8.88;;;3.00;;
67092;SDS011;54011;50.772;7.730;2022-10-28T08:09:42;12.57;;;3.67;;
67092;SDS011;54011;50.772;7.730;2022-10-28T08:12:08;12.02;;;2.97;;
67092;SDS011;54011;50.772;7.730;2022-10-28T08:14:39;11.95;;;2.95;;
67092;SDS011;54011;50.772;7.730;2022-10-28T08:17:04;19.48;;;3.38;;
67092;SDS011;54011;50.772;7.730;2022-10-28T08:19:30;13.82;;;3.65;;
67092;SDS011;54011;50.772;7.730;2022-10-28T08:21:56;20.52;;;4.45;;
67092;SDS011;54011;50.772;7.730;2022-10-28T08:24:21;14.23;;;3.83;;
67092;SDS011;54011;50.772;7.730;2022-10-28T08:26:47;13.05;;;3.58;;
67092;SDS011;54011;50.772;7.730;2022-10-28T08:29:12;12.60;;;3.70;;
67092;SDS011;54011;50.772;7.730;2022-10-28T08:31:38;18.90;;;4.05;;
67092;SDS011;54011;50.772;7.730;2022-10-28T08:34:03;18.40;;;5.82;;
67092;SDS011;54011;50.772;7.730;2022-10-28T08:36:29;18.40;;;4.40;;
67092;SDS011;54011;50.772;7.730;2022-10-28T08:38:56;15.23;;;4.20;;
67092;SDS011;54011;50.772;7.730;2022-10-28T08:49:20;19.52;;;4.20;;
67092;SDS011;54011;50.772;7.730;2022-10-28T08:51:54;18.20;;;3.63;;
67092;SDS011;54011;50.772;7.730;2022-10-28T08:57:31;16.15;;;4.57;;
67092;SDS011;54011;50.772;7.730;2022-10-28T09:05:59;14.45;;;2.95;;
67092;SDS011;54011;50.772;7.730;2022-10-28T09:08:27;14.60;;;3.40;;
67092;SDS011;54011;50.772;7.730;2022-10-28T09:24:37;10.88;;;2.88;;
67092;SDS011;54011;50.772;7.730;2022-10-28T09:33:08;14.55;;;3.33;;
67092;SDS011;54011;50.772;7.730;2022-10-28T09:35:57;10.52;;;2.58;;
67092;SDS011;54011;50.772;7.730;2022-10-28T09:41:04;17.35;;;2.97;;
67092;SDS011;54011;50.772;7.730;2022-10-28T09:46:22;20.20;;;3.13;;
67092;SDS011;54011;50.772;7.730;2022-10-28T09:48:52;10.02;;;2.70;;
67092;SDS011;54011;50.772;7.730;2022-10-28T09:51:32;15.23;;;3.42;;
67092;SDS011;54011;50.772;7.730;2022-10-28T09:54:09;12.20;;;2.92;;
67092;SDS011;54011;50.772;7.730;2022-10-28T09:56:36;13.57;;;3.00;;
67092;SDS011;54011;50.772;7.730;2022-10-28T09:59:02;14.05;;;3.03;;
67092;SDS011;54011;50.772;7.730;2022-10-28T10:01:32;15.93;;;3.03;;
67092;SDS011;54011;50.772;7.730;2022-10-28T10:03:59;11.95;;;3.15;;
67092;SDS011;54011;50.772;7.730;2022-10-28T10:06:33;11.35;;;3.15;;
67092;SDS011;54011;50.772;7.730;2022-10-28T10:09:01;14.15;;;2.42;;
67092;SDS011;54011;50.772;7.730;2022-10-28T10:11:32;15.95;;;2.95;;
67092;SDS011;54011;50.772;7.730;2022-10-28T10:14:06;14.02;;;3.05;;
67092;SDS011;54011;50.772;7.730;2022-10-28T10:16:39;16.17;;;3.50;;
67092;SDS011;54011;50.772;7.730;2022-10-28T10:19:09;13.93;;;3.42;;
67092;SDS011;54011;50.772;7.730;2022-10-28T10:27:03;21.88;;;3.85;;
67092;SDS011;54011;50.772;7.730;2022-10-28T10:29:45;14.07;;;3.38;;
67092;SDS011;54011;50.772;7.730;2022-10-28T10:34:42;17.42;;;3.60;;
67092;SDS011;54011;50.772;7.730;2022-10-28T10:37:18;16.60;;;3.35;;
67092;SDS011;54011;50.772;7.730;2022-10-28T10:39:45;15.65;;;4.43;;
67092;SDS011;54011;50.772;7.730;2022-10-28T10:42:43;9.13;;;2.75;;
67092;SDS011;54011;50.772;7.730;2022-10-28T10:47:42;10.55;;;2.80;;
67092;SDS011;54011;50.772;7.730;2022-10-28T10:50:18;14.80;;;3.20;;
67092;SDS011;54011;50.772;7.730;2022-10-28T10:52:49;14.18;;;3.55;;
67092;SDS011;54011;50.772;7.730;2022-10-28T10:55:21;27.63;;;4.38;;
67092;SDS011;54011;50.772;7.730;2022-10-28T10:57:52;14.00;;;2.97;;
67092;SDS011;54011;50.772;7.730;2022-10-28T11:00:19;11.73;;;2.67;;
67092;SDS011;54011;50.772;7.730;2022-10-28T11:02:47;14.18;;;2.97;;
67092;SDS011;54011;50.772;7.730;2022-10-28T11:05:18;8.30;;;2.83;;
67092;SDS011;54011;50.772;7.730;2022-10-28T11:07:45;14.35;;;3.00;;
67092;SDS011;54011;50.772;7.730;2022-10-28T11:10:23;11.93;;;3.28;;
67092;SDS011;54011;50.772;7.730;2022-10-28T11:13:02;10.05;;;3.03;;
67092;SDS011;54011;50.772;7.730;2022-10-28T11:15:29;17.63;;;3.33;;
67092;SDS011;54011;50.772;7.730;2022-10-28T11:18:29;13.80;;;3.08;;
67092;SDS011;54011;50.772;7.730;2022-10-28T11:24:12;17.35;;;4.60;;
67092;SDS011;54011;50.772;7.730;2022-10-28T11:26:43;13.52;;;3.15;;
67092;SDS011;54011;50.772;7.730;2022-10-28T11:29:33;18.17;;;3.33;;
67092;SDS011;54011;50.772;7.730;2022-10-28T11:37:30;15.50;;;3.20;;
67092;SDS011;54011;50.772;7.730;2022-10-28T11:43:02;18.77;;;3.28;;
67092;SDS011;54011;50.772;7.730;2022-10-28T11:48:48;18.63;;;4.30;;
67092;SDS011;54011;50.772;7.730;2022-10-28T11:56:42;19.63;;;2.95;;
67092;SDS011;54011;50.772;7.730;2022-10-28T11:59:16;14.65;;;2.60;;
67092;SDS011;54011;50.772;7.730;2022-10-28T12:04:45;17.08;;;3.53;;
67092;SDS011;54011;50.772;7.730;2022-10-28T12:07:24;14.38;;;2.58;;
67092;SDS011;54011;50.772;7.730;2022-10-28T12:10:00;10.27;;;2.85;;
67092;SDS011;54011;50.772;7.730;2022-10-28T12:17:36;17.02;;;3.17;;
67092;SDS011;54011;50.772;7.730;2022-10-28T12:22:55;15.90;;;3.00;;
67092;SDS011;54011;50.772;7.730;2022-10-28T12:25:25;19.27;;;3.53;;
67092;SDS011;54011;50.772;7.730;2022-10-28T12:27:54;11.55;;;3.08;;
67092;SDS011;54011;50.772;7.730;2022-10-28T12:32:56;15.05;;;3.10;;
67092;SDS011;54011;50.772;7.730;2022-10-28T12:35:35;19.00;;;3.08;;
67092;SDS011;54011;50.772;7.730;2022-10-28T12:41:06;18.30;;;2.95;;
67092;SDS011;54011;50.772;7.730;2022-10-28T12:44:00;16.42;;;2.92;;
67092;SDS011;54011;50.772;7.730;2022-10-28T12:46:37;15.25;;;3.05;;
67092;SDS011;54011;50.772;7.730;2022-10-28T12:51:56;12.00;;;2.25;;
67092;SDS011;54011;50.772;7.730;2022-10-28T12:54:29;17.42;;;3.40;;
67092;SDS011;54011;50.772;7.730;2022-10-28T12:57:12;14.07;;;2.90;;
67092;SDS011;54011;50.772;7.730;2022-10-28T12:59:40;17.75;;;3.28;;
67092;SDS011;54011;50.772;7.730;2022-10-28T13:02:13;15.18;;;3.03;;
67092;SDS011;54011;50.772;7.730;2022-10-28T13:04:43;11.02;;;2.65;;
67092;SDS011;54011;50.772;7.730;2022-10-28T13:07:29;13.65;;;2.97;;
67092;SDS011;54011;50.772;7.730;2022-10-28T13:10:37;16.05;;;3.03;;
67092;SDS011;54011;50.772;7.730;2022-10-28T13:15:58;12.80;;;2.95;;
67092;SDS011;54011;50.772;7.730;2022-10-28T13:18:34;15.52;;;3.10;;
67092;SDS011;54011;50.772;7.730;2022-10-28T13:21:23;14.55;;;3.20;;
67092;SDS011;54011;50.772;7.730;2022-10-28T13:27:04;12.57;;;2.72;;
67092;SDS011;54011;50.772;7.730;2022-10-28T13:29:33;19.20;;;2.93;;
67092;SDS011;54011;50.772;7.730;2022-10-28T13:32:01;18.08;;;3.35;;
67092;SDS011;54011;50.772;7.730;2022-10-28T13:34:36;16.98;;;2.80;;
67092;SDS011;54011;50.772;7.730;2022-10-28T13:37:04;14.98;;;2.83;;
67092;SDS011;54011;50.772;7.730;2022-10-28T13:39:43;23.48;;;3.60;;
67092;SDS011;54011;50.772;7.730;2022-10-28T13:47:35;15.68;;;3.20;;
67092;SDS011;54011;50.772;7.730;2022-10-28T13:52:29;12.77;;;2.83;;
67092;SDS011;54011;50.772;7.730;2022-10-28T13:54:55;20.20;;;3.63;;
67092;SDS011;54011;50.772;7.730;2022-10-28T14:00:47;11.80;;;2.95;;
67092;SDS011;54011;50.772;7.730;2022-10-28T14:08:03;18.10;;;3.10;;
67092;SDS011;54011;50.772;7.730;2022-10-28T14:10:37;16.02;;;3.22;;
67092;SDS011;54011;50.772;7.730;2022-10-28T14:13:05;17.92;;;3.10;;
67092;SDS011;54011;50.772;7.730;2022-10-28T14:15:41;20.25;;;3.42;;
67092;SDS011;54011;50.772;7.730;2022-10-28T14:33:32;17.92;;;3.47;;
67092;SDS011;54011;50.772;7.730;2022-10-28T14:44:38;18.38;;;3.50;;
67092;SDS011;54011;50.772;7.730;2022-10-28T14:49:37;22.70;;;3.30;;
67092;SDS011;54011;50.772;7.730;2022-10-28T14:52:08;11.82;;;2.80;;
67092;SDS011;54011;50.772;7.730;2022-10-28T14:54:44;15.98;;;3.15;;
67092;SDS011;54011;50.772;7.730;2022-10-28T14:57:13;15.00;;;3.13;;
67092;SDS011;54011;50.772;7.730;2022-10-28T14:59:43;15.30;;;2.83;;
67092;SDS011;54011;50.772;7.730;2022-10-28T15:04:40;14.07;;;2.92;;
67092;SDS011;54011;50.772;7.730;2022-10-28T15:07:10;20.77;;;3.10;;
67092;SDS011;54011;50.772;7.730;2022-10-28T15:09:38;19.50;;;2.80;;
67092;SDS011;54011;50.772;7.730;2022-10-28T15:12:05;13.35;;;2.67;;
67092;SDS011;54011;50.772;7.730;2022-10-28T15:14:35;13.93;;;3.90;;
67092;SDS011;54011;50.772;7.730;2022-10-28T15:19:43;13.98;;;3.00;;
67092;SDS011;54011;50.772;7.730;2022-10-28T15:27:35;9.48;;;2.72;;
67092;SDS011;54011;50.772;7.730;2022-10-28T15:30:24;24.02;;;3.95;;
67092;SDS011;54011;50.772;7.730;2022-10-28T15:32:49;20.75;;;3.25;;
67092;SDS011;54011;50.772;7.730;2022-10-28T15:38:23;15.43;;;3.20;;
67092;SDS011;54011;50.772;7.730;2022-10-28T15:40:49;19.92;;;4.05;;
67092;SDS011;54011;50.772;7.730;2022-10-28T15:43:16;14.55;;;3.35;;
67092;SDS011;54011;50.772;7.730;2022-10-28T15:45:43;14.98;;;2.40;;
67092;SDS011;54011;50.772;7.730;2022-10-28T15:48:10;16.27;;;3.28;;
67092;SDS011;54011;50.772;7.730;2022-10-28T15:50:38;16.35;;;3.40;;
67092;SDS011;54011;50.772;7.730;2022-10-28T15:55:35;18.20;;;3.67;;
67092;SDS011;54011;50.772;7.730;2022-10-28T16:00:57;16.10;;;3.38;;
67092;SDS011;54011;50.772;7.730;2022-10-28T16:03:25;18.85;;;4.05;;
67092;SDS011;54011;50.772;7.730;2022-10-28T16:05:55;17.00;;;3.78;;
67092;SDS011;54011;50.772;7.730;2022-10-28T16:13:26;21.85;;;3.30;;
67092;SDS011;54011;50.772;7.730;2022-10-28T16:16:00;21.05;;;3.60;;
67092;SDS011;54011;50.772;7.730;2022-10-28T16:19:18;18.13;;;3.65;;
67092;SDS011;54011;50.772;7.730;2022-10-28T16:21:34;16.95;;;3.30;;
67092;SDS011;54011;50.772;7.730;2022-10-28T16:24:01;20.75;;;3.63;;
67092;SDS011;54011;50.772;7.730;2022-10-28T16:26:27;19.95;;;3.75;;
67092;SDS011;54011;50.772;7.730;2022-10-28T16:28:54;21.02;;;4.25;;
67092;SDS011;54011;50.772;7.730;2022-10-28T16:31:24;29.08;;;3.88;;
67092;SDS011;54011;50.772;7.730;2022-10-28T16:33:52;16.65;;;3.60;;
67092;SDS011;54011;50.772;7.730;2022-10-28T16:36:18;19.83;;;3.42;;
67092;SDS011;54011;50.772;7.730;2022-10-28T16:38:43;14.30;;;3.42;;
67092;SDS011;54011;50.772;7.730;2022-10-28T16:41:16;18.90;;;3.50;;
67092;SDS011;54011;50.772;7.730;2022-10-28T16:43:42;15.90;;;3.72;;
67092;SDS011;54011;50.772;7.730;2022-10-28T16:46:08;16.60;;;3.63;;
67092;SDS011;54011;50.772;7.730;2022-10-28T16:48:35;19.15;;;3.38;;
67092;SDS011;54011;50.772;7.730;2022-10-28T16:51:02;15.52;;;3.83;;
67092;SDS011;54011;50.772;7.730;2022-10-28T16:53:30;20.98;;;3.67;;
67092;SDS011;54011;50.772;7.730;2022-10-28T16:55:56;15.90;;;3.30;;
67092;SDS011;54011;50.772;7.730;2022-10-28T16:58:25;20.13;;;3.85;;
67092;SDS011;54011;50.772;7.730;2022-10-28T17:00:51;17.70;;;3.95;;
67092;SDS011;54011;50.772;7.730;2022-10-28T17:03:18;10.95;;;3.28;;
67092;SDS011;54011;50.772;7.730;2022-10-28T17:05:43;14.40;;;3.42;;
67092;SDS011;54011;50.772;7.730;2022-10-28T17:08:09;19.08;;;3.70;;
67092;SDS011;54011;50.772;7.730;2022-10-28T17:10:35;15.75;;;3.65;;
67092;SDS011;54011;50.772;7.730;2022-10-28T17:13:04;16.35;;;3.35;;
67092;SDS011;54011;50.772;7.730;2022-10-28T17:15:32;22.52;;;3.95;;
67092;SDS011;54011;50.772;7.730;2022-10-28T17:17:57;17.75;;;3.80;;
67092;SDS011;54011;50.772;7.730;2022-10-28T17:20:23;19.15;;;3.63;;
67092;SDS011;54011;50.772;7.730;2022-10-28T17:22:49;16.00;;;4.30;;
67092;SDS011;54011;50.772;7.730;2022-10-28T17:25:15;16.17;;;3.75;;
67092;SDS011;54011;50.772;7.730;2022-10-28T17:27:40;22.60;;;4.38;;
67092;SDS011;54011;50.772;7.730;2022-10-28T17:30:06;16.83;;;3.80;;
67092;SDS011;54011;50.772;7.730;2022-10-28T17:32:32;17.98;;;3.90;;
67092;SDS011;54011;50.772;7.730;2022-10-28T17:34:58;19.95;;;3.67;;
67092;SDS011;54011;50.772;7.730;2022-10-28T17:37:23;14.10;;;3.50;;
67092;SDS011;54011;50.772;7.730;2022-10-28T17:39:49;20.02;;;4.07;;
67092;SDS011;54011;50.772;7.730;2022-10-28T17:42:14;24.20;;;8.25;;
67092;SDS011;54011;50.772;7.730;2022-10-28T17:44:39;17.30;;;3.75;;
67092;SDS011;54011;50.772;7.730;2022-10-28T17:47:05;12.85;;;3.80;;
67092;SDS011;54011;50.772;7.730;2022-10-28T17:49:30;17.95;;;4.35;;
67092;SDS011;54011;50.772;7.730;2022-10-28T17:51:58;17.50;;;3.50;;
67092;SDS011;54011;50.772;7.730;2022-10-28T17:54:23;16.00;;;3.75;;
67092;SDS011;54011;50.772;7.730;2022-10-28T17:56:49;21.63;;;4.45;;
67092;SDS011;54011;50.772;7.730;2022-10-28T17:59:14;24.30;;;4.97;;
67092;SDS011;54011;50.772;7.730;2022-10-28T18:01:40;21.50;;;4.90;;
67092;SDS011;54011;50.772;7.730;2022-10-28T18:04:05;27.40;;;9.02;;
67092;SDS011;54011;50.772;7.730;2022-10-28T18:06:32;26.10;;;7.55;;
67092;SDS011;54011;50.772;7.730;2022-10-28T18:08:58;19.88;;;4.45;;